createdAt,value
2023-10-23T00:00:50.678Z,5.80
2023-10-23T00:03:17.769Z,5.70
2023-10-23T00:05:44.797Z,5.70
2023-10-23T00:08:11.659Z,5.60
2023-10-23T00:10:38.415Z,5.50
2023-10-23T00:13:05.343Z,5.50
2023-10-23T00:15:33.032Z,5.60
2023-10-23T00:17:59.867Z,5.70
2023-10-23T00:20:26.754Z,5.70
2023-10-23T00:22:53.525Z,5.70
2023-10-23T00:25:20.345Z,5.60
2023-10-23T00:27:47.163Z,5.50
2023-10-23T00:30:14.247Z,5.50
2023-10-23T00:32:41.234Z,5.60
2023-10-23T00:35:08.541Z,5.60
2023-10-23T00:37:36.248Z,5.40
2023-10-23T00:40:03.331Z,5.40
2023-10-23T00:42:32.535Z,5.30
2023-10-23T00:44:59.347Z,5.30
2023-10-23T00:47:27.491Z,5.30
2023-10-23T00:49:56.884Z,5.30
2023-10-23T00:52:25.007Z,5.30
2023-10-23T00:54:52.876Z,5.20
2023-10-23T00:57:20.397Z,5.30
2023-10-23T00:59:47.406Z,5.40
2023-10-23T01:02:15.530Z,5.30
2023-10-23T01:04:42.876Z,5.30
2023-10-23T01:07:09.663Z,5.30
2023-10-23T01:09:36.457Z,5.30
2023-10-23T01:12:03.403Z,5.30
2023-10-23T01:14:30.455Z,5.30
2023-10-23T01:16:57.369Z,5.40
2023-10-23T01:19:24.137Z,5.40
2023-10-23T01:21:50.920Z,5.40
2023-10-23T01:24:19.930Z,5.40
2023-10-23T01:26:46.861Z,5.40
2023-10-23T01:29:13.660Z,5.40
2023-10-23T01:31:40.486Z,5.50
2023-10-23T01:34:07.310Z,5.60
2023-10-23T01:36:34.121Z,5.60
2023-10-23T01:39:00.964Z,5.50
2023-10-23T01:41:27.725Z,5.50
2023-10-23T01:43:54.585Z,5.40
2023-10-23T01:46:21.432Z,5.30
2023-10-23T01:48:48.871Z,5.30
2023-10-23T01:51:15.686Z,5.30
2023-10-23T01:53:42.424Z,5.30
2023-10-23T01:56:12.060Z,5.30
2023-10-23T01:58:38.834Z,5.10
2023-10-23T02:01:05.792Z,5.00
2023-10-23T02:03:33.021Z,5.00
2023-10-23T02:06:00.191Z,5.00
2023-10-23T02:08:26.965Z,5.10
2023-10-23T02:10:53.724Z,5.00
2023-10-23T02:13:20.731Z,4.90
2023-10-23T02:15:47.699Z,4.90
2023-10-23T02:18:14.581Z,4.90
2023-10-23T02:20:41.379Z,4.80
2023-10-23T02:23:08.167Z,4.80
2023-10-23T02:25:34.916Z,4.80
2023-10-23T02:28:01.693Z,4.80
2023-10-23T02:30:28.683Z,4.80
2023-10-23T02:32:55.953Z,4.60
2023-10-23T02:35:22.778Z,4.50
2023-10-23T02:37:50.808Z,4.50
2023-10-23T02:40:17.722Z,4.50
2023-10-23T02:42:44.627Z,4.40
2023-10-23T02:45:11.574Z,4.40
2023-10-23T02:47:39.136Z,4.30
2023-10-23T02:50:07.020Z,4.30
2023-10-23T02:52:33.870Z,4.30
2023-10-23T02:55:00.661Z,4.30
2023-10-23T02:57:27.490Z,4.30
2023-10-23T02:59:56.594Z,4.20
2023-10-23T03:02:23.983Z,4.20
2023-10-23T03:04:50.772Z,4.10
2023-10-23T03:07:17.553Z,4.10
2023-10-23T03:09:44.456Z,4.00
2023-10-23T03:12:11.512Z,4.00
2023-10-23T03:14:38.378Z,4.00
2023-10-23T03:17:05.261Z,4.10
2023-10-23T03:19:32.029Z,4.00
2023-10-23T03:21:58.869Z,3.90
2023-10-23T03:24:25.958Z,3.90
2023-10-23T03:26:52.760Z,4.00
2023-10-23T03:29:19.538Z,4.00
2023-10-23T03:31:46.410Z,3.90
2023-10-23T03:34:14.648Z,3.90
2023-10-23T03:36:43.198Z,3.80
2023-10-23T03:39:10.065Z,3.80
2023-10-23T03:41:36.874Z,3.70
2023-10-23T03:44:04.776Z,3.70
2023-10-23T03:46:32.086Z,3.80
2023-10-23T03:48:59.151Z,3.80
2023-10-23T03:51:26.046Z,3.80
2023-10-23T03:53:52.885Z,3.80
2023-10-23T03:56:19.746Z,3.70
2023-10-23T03:58:46.496Z,3.70
2023-10-23T04:01:13.864Z,3.60
2023-10-23T04:03:40.696Z,3.60
2023-10-23T04:06:07.735Z,3.50
2023-10-23T04:08:34.582Z,3.50
2023-10-23T04:11:01.438Z,3.50
2023-10-23T04:13:30.357Z,3.30
2023-10-23T04:16:02.023Z,3.30
2023-10-23T04:18:29.302Z,3.30
2023-10-23T04:21:04.018Z,3.30
2023-10-23T04:23:31.098Z,3.30
2023-10-23T04:25:57.942Z,3.30
2023-10-23T04:28:25.216Z,3.30
2023-10-23T04:30:52.309Z,3.30
2023-10-23T04:33:26.174Z,3.40
2023-10-23T04:35:53.581Z,3.50
2023-10-23T04:38:21.162Z,3.70
2023-10-23T04:40:48.661Z,3.70
2023-10-23T04:43:15.688Z,3.80
2023-10-23T04:45:42.513Z,3.80
2023-10-23T04:48:09.979Z,3.80
2023-10-23T04:50:41.306Z,3.80
2023-10-23T04:53:08.805Z,3.90
2023-10-23T04:55:37.152Z,3.90
2023-10-23T04:58:04.062Z,4.00
2023-10-23T05:00:31.061Z,4.10
2023-10-23T05:02:57.880Z,4.10
2023-10-23T05:05:24.726Z,4.10
2023-10-23T05:07:51.685Z,4.00
2023-10-23T05:10:18.579Z,3.90
2023-10-23T05:12:47.138Z,3.90
2023-10-23T05:15:13.947Z,3.90
2023-10-23T05:17:40.829Z,3.70
2023-10-23T05:20:08.278Z,3.60
2023-10-23T05:22:35.285Z,3.70
2023-10-23T05:25:02.352Z,3.80
2023-10-23T05:27:29.595Z,3.80
2023-10-23T05:29:56.695Z,3.70
2023-10-23T05:32:23.539Z,3.60
2023-10-23T05:34:50.449Z,3.60
2023-10-23T05:37:17.269Z,3.60
2023-10-23T05:39:44.084Z,3.60
2023-10-23T05:42:10.918Z,3.60
2023-10-23T05:44:37.712Z,3.60
2023-10-23T05:47:04.693Z,3.60
2023-10-23T05:49:31.455Z,3.50
2023-10-23T05:51:58.418Z,3.40
2023-10-23T05:54:26.406Z,3.40
2023-10-23T05:56:53.227Z,3.50
2023-10-23T05:59:20.086Z,3.50
2023-10-23T06:01:46.840Z,3.50
2023-10-23T06:04:13.780Z,3.50
2023-10-23T06:06:40.652Z,3.40
2023-10-23T06:09:09.135Z,3.40
2023-10-23T06:11:35.952Z,3.40
2023-10-23T06:14:04.288Z,3.50
2023-10-23T06:16:31.586Z,3.50
2023-10-23T06:19:00.873Z,3.60
2023-10-23T06:21:27.836Z,3.50
2023-10-23T06:23:54.720Z,3.50
2023-10-23T06:26:21.896Z,3.60
2023-10-23T06:28:48.918Z,3.60
2023-10-23T06:31:16.042Z,3.70
2023-10-23T06:33:44.703Z,3.80
2023-10-23T06:36:11.919Z,3.80
2023-10-23T06:38:39.076Z,3.90
2023-10-23T06:41:07.136Z,3.90
2023-10-23T06:43:35.260Z,3.90
2023-10-23T06:46:02.978Z,3.80
2023-10-23T06:48:34.131Z,3.90
2023-10-23T06:51:01.234Z,3.80
2023-10-23T06:53:28.687Z,4.00
2023-10-23T06:55:56.360Z,4.00
2023-10-23T06:58:23.862Z,3.90
2023-10-23T07:00:51.122Z,3.90
2023-10-23T07:03:18.107Z,4.00
2023-10-23T07:05:45.335Z,4.00
2023-10-23T07:08:13.073Z,4.00
2023-10-23T07:10:40.195Z,4.10
2023-10-23T07:13:15.507Z,4.10
2023-10-23T07:15:46.630Z,4.20
2023-10-23T07:18:13.918Z,4.30
2023-10-23T07:20:41.072Z,4.40
2023-10-23T07:23:08.292Z,4.40
2023-10-23T07:25:35.266Z,4.50
2023-10-23T07:28:02.038Z,4.40
2023-10-23T07:30:29.199Z,4.40
2023-10-23T07:32:56.001Z,4.50
2023-10-23T07:35:22.877Z,4.70
2023-10-23T07:37:49.825Z,4.60
2023-10-23T07:40:17.543Z,4.70
2023-10-23T07:42:44.331Z,4.70
2023-10-23T07:45:11.152Z,4.70
2023-10-23T07:47:37.974Z,4.80
2023-10-23T07:50:05.936Z,4.90
2023-10-23T07:52:33.509Z,5.10
2023-10-23T07:55:04.761Z,5.20
2023-10-23T07:57:31.823Z,5.20
2023-10-23T07:59:58.660Z,5.40
2023-10-23T08:02:26.284Z,5.30
2023-10-23T08:04:53.604Z,5.60
2023-10-23T08:07:20.571Z,5.80
2023-10-23T08:09:47.904Z,5.90
2023-10-23T08:12:14.825Z,6.10
2023-10-23T08:14:42.085Z,6.30
2023-10-23T08:17:08.994Z,6.40
2023-10-23T08:19:35.945Z,6.60
2023-10-23T08:22:02.933Z,6.70
2023-10-23T08:24:30.148Z,6.70
2023-10-23T08:26:57.175Z,6.80
2023-10-23T08:29:24.035Z,7.00
2023-10-23T08:31:50.944Z,7.30
2023-10-23T08:34:22.225Z,7.40
2023-10-23T08:36:49.882Z,7.50
2023-10-23T08:39:16.901Z,7.80
2023-10-23T08:41:43.926Z,7.90
2023-10-23T08:44:14.010Z,8.00
2023-10-23T08:46:41.724Z,8.20
2023-10-23T08:49:08.649Z,8.40
2023-10-23T08:51:36.512Z,8.70
2023-10-23T08:54:11.596Z,8.80
2023-10-23T08:56:42.124Z,8.80
2023-10-23T08:59:10.720Z,8.80
2023-10-23T09:01:38.922Z,9.10
2023-10-23T09:04:07.761Z,9.30
2023-10-23T09:06:36.930Z,9.30
2023-10-23T09:09:08.669Z,9.50
2023-10-23T09:11:45.152Z,9.60
2023-10-23T09:14:24.190Z,9.60
2023-10-23T09:16:52.906Z,9.80
2023-10-23T09:19:26.480Z,9.90
2023-10-23T09:21:53.927Z,10.10
2023-10-23T09:24:23.368Z,10.30
2023-10-23T09:26:51.654Z,10.50
2023-10-23T09:29:28.647Z,10.80
2023-10-23T09:31:58.641Z,10.90
2023-10-23T09:34:26.155Z,11.20
2023-10-23T09:36:54.293Z,11.30
2023-10-23T09:39:25.152Z,11.30
2023-10-23T09:41:53.309Z,11.60
2023-10-23T09:44:20.144Z,11.70
2023-10-23T09:46:49.121Z,11.80
2023-10-23T09:49:17.065Z,11.90
2023-10-23T09:51:46.088Z,12.10
2023-10-23T09:54:20.636Z,12.10
2023-10-23T09:56:52.910Z,12.30
2023-10-23T09:59:26.010Z,12.50
2023-10-23T10:02:01.877Z,12.80
2023-10-23T10:04:46.039Z,13.10
2023-10-23T10:07:19.966Z,13.20
2023-10-23T10:09:47.054Z,13.30
2023-10-23T10:12:14.627Z,13.40
2023-10-23T10:14:43.119Z,13.50
2023-10-23T10:17:11.583Z,13.40
2023-10-23T10:19:39.888Z,13.40
2023-10-23T10:22:15.962Z,13.40
2023-10-23T10:24:43.644Z,13.80
2023-10-23T10:27:11.658Z,14.00
2023-10-23T10:29:38.597Z,14.20
2023-10-23T10:32:10.940Z,14.50
2023-10-23T10:34:39.182Z,14.80
2023-10-23T10:37:15.468Z,14.90
2023-10-23T10:39:51.924Z,15.10
2023-10-23T10:42:39.565Z,15.10
2023-10-23T10:45:14.583Z,15.30
2023-10-23T10:48:00.538Z,15.50
2023-10-23T10:50:39.942Z,15.60
2023-10-23T10:53:09.043Z,15.70
2023-10-23T10:55:37.766Z,15.80
2023-10-23T10:58:05.682Z,15.90
2023-10-23T11:00:35.213Z,15.80
2023-10-23T11:03:04.188Z,15.60
2023-10-23T11:05:32.993Z,15.60
2023-10-23T11:08:00.907Z,15.60
2023-10-23T11:10:27.953Z,15.60
2023-10-23T11:12:54.810Z,15.60
2023-10-23T11:15:21.683Z,15.60
2023-10-23T11:17:48.687Z,15.60
2023-10-23T11:20:16.581Z,15.60
2023-10-23T11:22:45.500Z,15.70
2023-10-23T11:25:13.229Z,15.70
2023-10-23T11:27:40.961Z,15.80
2023-10-23T11:30:09.074Z,15.80
2023-10-23T11:32:36.298Z,15.80
2023-10-23T11:35:06.279Z,15.80
2023-10-23T11:37:36.150Z,15.90
2023-10-23T11:40:09.816Z,16.10
2023-10-23T11:43:03.932Z,16.00
2023-10-23T11:45:30.867Z,16.20
2023-10-23T11:47:57.858Z,16.20
2023-10-23T11:50:27.049Z,16.30
2023-10-23T11:52:53.833Z,16.40
2023-10-23T11:55:20.800Z,16.40
2023-10-23T11:57:51.449Z,16.60
2023-10-23T12:00:20.296Z,16.60
2023-10-23T12:02:48.457Z,16.60
2023-10-23T12:05:17.910Z,16.70
2023-10-23T12:07:48.870Z,16.70
2023-10-23T12:10:18.177Z,16.70
2023-10-23T12:12:46.192Z,16.70
2023-10-23T12:15:14.724Z,16.80
2023-10-23T12:17:43.165Z,16.80
2023-10-23T12:20:13.717Z,16.80
2023-10-23T12:22:46.424Z,16.80
2023-10-23T12:25:14.828Z,16.80
2023-10-23T12:27:42.135Z,16.70
2023-10-23T12:30:14.993Z,16.60
2023-10-23T12:33:16.947Z,16.40
2023-10-23T12:35:36.586Z,16.30
2023-10-23T12:38:04.286Z,16.20
2023-10-23T12:40:34.113Z,16.10
2023-10-23T12:43:02.253Z,15.90
2023-10-23T12:45:29.658Z,15.90
2023-10-23T12:47:56.808Z,15.90
2023-10-23T12:50:23.615Z,15.90
2023-10-23T12:52:50.784Z,15.80
2023-10-23T12:55:18.275Z,15.80
2023-10-23T12:57:45.305Z,15.70
2023-10-23T13:00:14.933Z,15.70
2023-10-23T13:02:43.714Z,15.80
2023-10-23T13:05:11.582Z,15.70
2023-10-23T13:07:38.911Z,15.70
2023-10-23T13:10:06.785Z,15.70
2023-10-23T13:12:35.608Z,15.70
2023-10-23T13:15:04.167Z,15.70
2023-10-23T13:17:32.614Z,15.70
2023-10-23T13:20:54.119Z,15.60
2023-10-23T13:22:51.205Z,15.60
2023-10-23T13:25:19.361Z,15.60
2023-10-23T13:27:48.094Z,15.60
2023-10-23T13:30:15.079Z,15.50
2023-10-23T13:32:42.390Z,15.50
2023-10-23T13:35:09.689Z,15.40
2023-10-23T13:37:37.218Z,15.30
2023-10-23T13:40:08.734Z,15.30
2023-10-23T13:42:36.174Z,15.20
2023-10-23T13:45:03.215Z,15.20
2023-10-23T13:47:32.413Z,15.10
2023-10-23T13:49:59.996Z,15.10
2023-10-23T13:52:28.170Z,15.00
2023-10-23T13:54:57.003Z,15.00
2023-10-23T13:57:23.929Z,14.90
2023-10-23T13:59:50.723Z,14.90
2023-10-23T14:02:17.578Z,15.00
2023-10-23T14:04:44.451Z,14.90
2023-10-23T14:07:13.602Z,14.90
2023-10-23T14:09:46.321Z,14.90
2023-10-23T14:12:16.191Z,14.80
2023-10-23T14:14:43.164Z,14.80
2023-10-23T14:17:10.284Z,14.80
2023-10-23T14:19:46.667Z,14.80
2023-10-23T14:22:18.716Z,14.80
2023-10-23T14:24:49.217Z,14.80
2023-10-23T14:27:18.026Z,14.80
2023-10-23T14:29:45.298Z,14.90
2023-10-23T14:32:12.233Z,14.90
2023-10-23T14:34:39.149Z,14.90
2023-10-23T14:37:06.134Z,15.00
2023-10-23T14:39:33.030Z,15.10
2023-10-23T14:41:59.765Z,15.20
2023-10-23T14:44:26.523Z,15.20
2023-10-23T14:46:53.474Z,15.30
2023-10-23T14:49:22.460Z,15.30
2023-10-23T14:51:51.743Z,15.30
2023-10-23T14:54:18.659Z,15.30
2023-10-23T14:56:46.009Z,15.30
2023-10-23T14:59:16.161Z,15.20
2023-10-23T15:01:43.219Z,15.30
2023-10-23T15:04:10.363Z,15.30
2023-10-23T15:06:37.207Z,15.40
2023-10-23T15:09:04.311Z,15.50
2023-10-23T15:11:31.169Z,15.40
2023-10-23T15:13:58.061Z,15.40
2023-10-23T15:16:25.033Z,15.30
2023-10-23T15:18:53.316Z,15.30
2023-10-23T15:21:20.446Z,15.00
2023-10-23T15:23:47.234Z,14.80
2023-10-23T15:26:14.017Z,14.50
2023-10-23T15:28:41.514Z,14.40
2023-10-23T15:31:09.379Z,14.20
2023-10-23T15:33:36.950Z,14.10
2023-10-23T15:36:05.427Z,13.90
2023-10-23T15:38:33.292Z,13.80
2023-10-23T15:41:09.021Z,13.70
2023-10-23T15:43:39.475Z,13.50
2023-10-23T15:46:12.720Z,13.30
2023-10-23T15:48:40.564Z,13.20
2023-10-23T15:51:07.457Z,13.20
2023-10-23T15:53:34.458Z,13.10
2023-10-23T15:56:01.864Z,13.00
2023-10-23T15:58:29.923Z,12.90
2023-10-23T16:00:58.172Z,12.90
2023-10-23T16:03:25.323Z,12.80
2023-10-23T16:05:52.512Z,12.80
2023-10-23T16:08:19.305Z,12.70
2023-10-23T16:10:53.149Z,12.60
2023-10-23T16:13:20.043Z,12.60
2023-10-23T16:15:48.083Z,12.60
2023-10-23T16:18:16.847Z,12.60
2023-10-23T16:20:44.605Z,12.60
2023-10-23T16:23:12.299Z,12.50
2023-10-23T16:25:42.763Z,12.50
2023-10-23T16:28:10.785Z,12.50
2023-10-23T16:30:39.567Z,12.40
2023-10-23T16:33:07.062Z,12.30
2023-10-23T16:35:37.614Z,12.30
2023-10-23T16:38:06.886Z,12.20
2023-10-23T16:40:35.094Z,12.20
2023-10-23T16:43:02.517Z,12.20
2023-10-23T16:45:32.025Z,12.20
2023-10-23T16:48:00.006Z,12.20
2023-10-23T16:50:28.571Z,12.20
2023-10-23T16:52:57.072Z,12.30
2023-10-23T16:55:26.058Z,12.30
2023-10-23T16:57:52.958Z,12.30
2023-10-23T17:00:20.083Z,12.30
2023-10-23T17:02:46.944Z,12.30
2023-10-23T17:05:14.093Z,12.30
2023-10-23T17:07:41.489Z,12.20
2023-10-23T17:10:08.834Z,12.20
2023-10-23T17:12:36.367Z,12.10
2023-10-23T17:15:04.040Z,12.10
2023-10-23T17:17:31.785Z,12.00
2023-10-23T17:19:59.058Z,12.00
2023-10-23T17:22:25.993Z,11.90
2023-10-23T17:24:52.943Z,11.90
2023-10-23T17:27:20.517Z,11.80
2023-10-23T17:29:47.726Z,11.80
2023-10-23T17:32:14.661Z,11.80
2023-10-23T17:34:41.609Z,11.70
2023-10-23T17:37:08.792Z,11.70
2023-10-23T17:39:35.697Z,11.60
2023-10-23T17:42:03.399Z,11.60
2023-10-23T17:44:30.688Z,11.50
2023-10-23T17:46:57.557Z,11.50
2023-10-23T17:49:24.550Z,11.50
2023-10-23T17:51:51.544Z,11.40
2023-10-23T17:54:19.642Z,11.30
2023-10-23T17:56:47.214Z,11.30
2023-10-23T17:59:14.481Z,11.30
2023-10-23T18:01:44.707Z,11.20
2023-10-23T18:04:12.492Z,11.20
2023-10-23T18:06:40.088Z,11.00
2023-10-23T18:09:07.818Z,10.90
2023-10-23T18:11:35.183Z,11.00
2023-10-23T18:14:02.235Z,10.90
2023-10-23T18:16:29.736Z,10.90
2023-10-23T18:18:57.236Z,10.90
2023-10-23T18:21:25.116Z,10.90
2023-10-23T18:23:53.269Z,10.90
2023-10-23T18:26:21.564Z,10.90
2023-10-23T18:28:48.598Z,10.80
2023-10-23T18:31:16.075Z,10.80
2023-10-23T18:33:43.540Z,10.80
2023-10-23T18:36:19.698Z,10.80
2023-10-23T18:38:47.556Z,10.80
2023-10-23T18:41:19.866Z,10.70
2023-10-23T18:43:46.932Z,10.60
2023-10-23T18:46:14.883Z,10.50
2023-10-23T18:48:42.699Z,10.50
2023-10-23T18:51:13.569Z,10.50
2023-10-23T18:53:42.230Z,10.50
2023-10-23T18:56:09.359Z,10.40
2023-10-23T18:58:36.788Z,10.40
2023-10-23T19:01:04.123Z,10.40
2023-10-23T19:03:31.572Z,10.40
2023-10-23T19:05:59.273Z,10.40
2023-10-23T19:08:31.692Z,10.30
2023-10-23T19:10:59.843Z,10.30
2023-10-23T19:13:27.263Z,10.20
2023-10-23T19:15:57.781Z,10.10
2023-10-23T19:18:27.431Z,10.10
2023-10-23T19:21:04.108Z,10.10
2023-10-23T19:23:32.511Z,10.00
2023-10-23T19:25:59.554Z,10.00
2023-10-23T19:28:27.004Z,10.00
2023-10-23T19:30:55.385Z,9.90
2023-10-23T19:33:22.987Z,10.00
2023-10-23T19:35:50.062Z,9.90
2023-10-23T19:38:17.463Z,9.90
2023-10-23T19:40:48.872Z,9.80
2023-10-23T19:43:17.650Z,9.80
2023-10-23T19:45:45.033Z,9.80
2023-10-23T19:48:13.456Z,9.80
2023-10-23T19:50:46.558Z,9.90
2023-10-23T19:53:18.094Z,9.90
2023-10-23T19:55:47.284Z,9.90
2023-10-23T19:58:17.361Z,9.80
2023-10-23T20:00:44.425Z,9.80
2023-10-23T20:03:11.755Z,9.70
2023-10-23T20:05:38.676Z,9.70
2023-10-23T20:08:06.027Z,9.80
2023-10-23T20:10:33.837Z,9.70
2023-10-23T20:13:03.461Z,9.70
2023-10-23T20:15:32.631Z,9.50
2023-10-23T20:17:59.587Z,9.50
2023-10-23T20:20:27.098Z,9.40
2023-10-23T20:22:54.303Z,9.50
2023-10-23T20:25:21.323Z,9.50
2023-10-23T20:27:49.369Z,9.40
2023-10-23T20:30:18.090Z,9.50
2023-10-23T20:32:45.870Z,9.50
2023-10-23T20:35:13.024Z,9.50
2023-10-23T20:37:40.515Z,9.40
2023-10-23T20:40:08.744Z,9.40
2023-10-23T20:42:37.287Z,9.40
2023-10-23T20:45:06.387Z,9.40
2023-10-23T20:47:34.786Z,9.30
2023-10-23T20:50:02.365Z,9.30
2023-10-23T20:52:33.354Z,9.40
2023-10-23T20:55:01.410Z,9.30
2023-10-23T20:57:31.468Z,9.30
2023-10-23T20:59:59.701Z,9.30
2023-10-23T21:02:26.701Z,9.30
2023-10-23T21:04:55.020Z,9.30
2023-10-23T21:07:24.297Z,9.30
2023-10-23T21:09:53.863Z,9.20
2023-10-23T21:12:21.413Z,9.20
2023-10-23T21:14:48.628Z,9.20
2023-10-23T21:17:19.706Z,9.10
2023-10-23T21:19:47.902Z,9.00
2023-10-23T21:22:15.884Z,9.00
2023-10-23T21:24:43.935Z,9.00
2023-10-23T21:27:11.344Z,8.90
2023-10-23T21:29:38.341Z,8.90
2023-10-23T21:32:06.000Z,9.00
2023-10-23T21:34:33.009Z,8.90
2023-10-23T21:36:59.824Z,9.00
2023-10-23T21:39:29.273Z,9.10
2023-10-23T21:41:57.610Z,9.20
2023-10-23T21:44:25.005Z,9.20
2023-10-23T21:46:52.063Z,9.20
2023-10-23T21:49:20.096Z,9.20
2023-10-23T21:51:48.177Z,9.20
2023-10-23T21:54:15.222Z,9.20
2023-10-23T21:57:20.697Z,9.10
2023-10-23T21:59:30.547Z,9.20
2023-10-23T22:01:58.687Z,9.10
2023-10-23T22:04:26.218Z,9.10
2023-10-23T22:06:56.011Z,9.00
2023-10-23T22:09:23.649Z,9.00
2023-10-23T22:11:51.146Z,9.00
2023-10-23T22:14:23.336Z,9.00
2023-10-23T22:16:52.303Z,8.90
2023-10-23T22:19:19.286Z,8.90
2023-10-23T22:21:49.408Z,8.90
2023-10-23T22:24:16.185Z,8.90
2023-10-23T22:26:45.368Z,8.90
2023-10-23T22:29:12.592Z,8.80
2023-10-23T22:31:39.800Z,8.80
2023-10-23T22:34:06.674Z,8.80
2023-10-23T22:36:33.573Z,8.80
2023-10-23T22:39:00.489Z,8.80
2023-10-23T22:41:27.254Z,8.90
2023-10-23T22:43:54.442Z,8.80
2023-10-23T22:46:21.258Z,8.80
2023-10-23T22:48:48.066Z,8.70
2023-10-23T22:51:15.133Z,8.60
2023-10-23T22:53:42.174Z,8.60
2023-10-23T22:56:11.686Z,8.60
2023-10-23T22:58:40.848Z,8.50
2023-10-23T23:01:09.334Z,8.40
2023-10-23T23:03:36.450Z,8.40
2023-10-23T23:06:07.234Z,8.40
2023-10-23T23:08:40.196Z,8.40
2023-10-23T23:11:08.470Z,8.40
2023-10-23T23:13:35.824Z,8.50
2023-10-23T23:16:05.569Z,8.40
2023-10-23T23:18:33.850Z,8.40
2023-10-23T23:21:02.637Z,8.50
2023-10-23T23:23:29.575Z,8.40
2023-10-23T23:25:56.743Z,8.40
2023-10-23T23:28:23.573Z,8.40
2023-10-23T23:30:50.452Z,8.40
2023-10-23T23:33:18.341Z,8.30
2023-10-23T23:35:45.170Z,8.20
2023-10-23T23:38:12.346Z,8.30
2023-10-23T23:40:39.946Z,8.30
2023-10-23T23:43:07.900Z,8.40
2023-10-23T23:45:34.767Z,8.40
2023-10-23T23:48:01.675Z,8.40
2023-10-23T23:50:29.034Z,8.50
2023-10-23T23:52:56.130Z,8.60
2023-10-23T23:55:26.020Z,8.50
2023-10-23T23:57:52.923Z,8.60
